sensor_id;sensor_type;location;lat;lon;timestamp;P1;P2;P0
49914;PMS5003;35806;47.958;13.158;2023-07-20T00:00:35;11;10;
49914;PMS5003;35806;47.958;13.158;2023-07-20T00:03:11;13;11;
49914;PMS5003;35806;47.958;13.158;2023-07-20T00:05:38;11;10;
49914;PMS5003;35806;47.958;13.158;2023-07-20T00:08:06;11;9;
49914;PMS5003;35806;47.958;13.158;2023-07-20T00:10:33;10;9;
49914;PMS5003;35806;47.958;13.158;2023-07-20T00:13:00;12;11;
49914;PMS5003;35806;47.958;13.158;2023-07-20T00:15:28;12;11;
49914;PMS5003;35806;47.958;13.158;2023-07-20T00:17:55;13;13;
49914;PMS5003;35806;47.958;13.158;2023-07-20T00:20:23;11;10;
49914;PMS5003;35806;47.958;13.158;2023-07-20T00:22:51;12;12;
49914;PMS5003;35806;47.958;13.158;2023-07-20T00:25:18;14;12;
49914;PMS5003;35806;47.958;13.158;2023-07-20T00:27:45;10;10;
49914;PMS5003;35806;47.958;13.158;2023-07-20T00:30:13;12;12;
49914;PMS5003;35806;47.958;13.158;2023-07-20T00:32:41;11;10;
49914;PMS5003;35806;47.958;13.158;2023-07-20T00:35:09;9;9;
49914;PMS5003;35806;47.958;13.158;2023-07-20T00:37:36;9;9;
49914;PMS5003;35806;47.958;13.158;2023-07-20T00:40:05;11;11;
49914;PMS5003;35806;47.958;13.158;2023-07-20T00:42:33;9;9;
49914;PMS5003;35806;47.958;13.158;2023-07-20T00:45:01;20;18;
49914;PMS5003;35806;47.958;13.158;2023-07-20T00:47:28;13;13;
49914;PMS5003;35806;47.958;13.158;2023-07-20T00:49:56;12;12;
49914;PMS5003;35806;47.958;13.158;2023-07-20T00:52:23;13;13;
49914;PMS5003;35806;47.958;13.158;2023-07-20T00:54:54;11;10;
49914;PMS5003;35806;47.958;13.158;2023-07-20T00:57:22;10;10;
49914;PMS5003;35806;47.958;13.158;2023-07-20T00:59:51;12;10;
49914;PMS5003;35806;47.958;13.158;2023-07-20T01:15:37;11;11;
49914;PMS5003;35806;47.958;13.158;2023-07-20T01:18:15;11;11;
49914;PMS5003;35806;47.958;13.158;2023-07-20T01:20:42;16;10;
49914;PMS5003;35806;47.958;13.158;2023-07-20T01:23:19;14;14;
49914;PMS5003;35806;47.958;13.158;2023-07-20T01:26:00;11;11;
49914;PMS5003;35806;47.958;13.158;2023-07-20T01:28:44;12;12;
49914;PMS5003;35806;47.958;13.158;2023-07-20T01:31:24;11;11;
49914;PMS5003;35806;47.958;13.158;2023-07-20T01:33:55;17;17;
49914;PMS5003;35806;47.958;13.158;2023-07-20T01:36:25;11;11;
49914;PMS5003;35806;47.958;13.158;2023-07-20T01:38:54;16;14;
49914;PMS5003;35806;47.958;13.158;2023-07-20T01:41:23;13;13;
49914;PMS5003;35806;47.958;13.158;2023-07-20T01:43:50;12;12;
49914;PMS5003;35806;47.958;13.158;2023-07-20T01:46:17;12;12;
49914;PMS5003;35806;47.958;13.158;2023-07-20T01:48:45;10;10;
49914;PMS5003;35806;47.958;13.158;2023-07-20T01:51:12;14;14;
49914;PMS5003;35806;47.958;13.158;2023-07-20T01:53:40;15;14;
49914;PMS5003;35806;47.958;13.158;2023-07-20T01:56:07;11;11;
49914;PMS5003;35806;47.958;13.158;2023-07-20T01:58:34;18;17;
49914;PMS5003;35806;47.958;13.158;2023-07-20T02:01:06;12;12;
49914;PMS5003;35806;47.958;13.158;2023-07-20T02:03:33;12;12;
49914;PMS5003;35806;47.958;13.158;2023-07-20T02:06:01;18;15;
49914;PMS5003;35806;47.958;13.158;2023-07-20T02:08:29;12;12;
49914;PMS5003;35806;47.958;13.158;2023-07-20T02:10:56;13;12;
49914;PMS5003;35806;47.958;13.158;2023-07-20T02:13:24;13;13;
49914;PMS5003;35806;47.958;13.158;2023-07-20T02:15:51;14;14;
49914;PMS5003;35806;47.958;13.158;2023-07-20T02:18:19;14;14;
49914;PMS5003;35806;47.958;13.158;2023-07-20T02:20:47;15;14;
49914;PMS5003;35806;47.958;13.158;2023-07-20T02:23:14;13;11;
49914;PMS5003;35806;47.958;13.158;2023-07-20T02:25:41;11;11;
49914;PMS5003;35806;47.958;13.158;2023-07-20T02:28:09;14;14;
49914;PMS5003;35806;47.958;13.158;2023-07-20T02:30:38;11;11;
49914;PMS5003;35806;47.958;13.158;2023-07-20T02:33:06;14;12;
49914;PMS5003;35806;47.958;13.158;2023-07-20T02:35:34;14;14;
49914;PMS5003;35806;47.958;13.158;2023-07-20T02:38:01;14;13;
49914;PMS5003;35806;47.958;13.158;2023-07-20T02:40:29;16;14;
49914;PMS5003;35806;47.958;13.158;2023-07-20T02:42:56;15;12;
49914;PMS5003;35806;47.958;13.158;2023-07-20T02:45:24;15;14;
49914;PMS5003;35806;47.958;13.158;2023-07-20T02:47:51;15;14;
49914;PMS5003;35806;47.958;13.158;2023-07-20T02:50:18;14;14;
49914;PMS5003;35806;47.958;13.158;2023-07-20T02:52:45;11;11;
49914;PMS5003;35806;47.958;13.158;2023-07-20T02:55:12;12;12;
49914;PMS5003;35806;47.958;13.158;2023-07-20T02:57:40;12;12;
49914;PMS5003;35806;47.958;13.158;2023-07-20T03:00:08;13;13;
49914;PMS5003;35806;47.958;13.158;2023-07-20T03:02:35;12;12;
49914;PMS5003;35806;47.958;13.158;2023-07-20T03:05:08;12;12;
49914;PMS5003;35806;47.958;13.158;2023-07-20T03:07:36;15;14;
49914;PMS5003;35806;47.958;13.158;2023-07-20T03:10:03;12;12;
49914;PMS5003;35806;47.958;13.158;2023-07-20T03:12:31;15;13;
49914;PMS5003;35806;47.958;13.158;2023-07-20T03:14:58;14;12;
49914;PMS5003;35806;47.958;13.158;2023-07-20T03:17:25;12;12;
49914;PMS5003;35806;47.958;13.158;2023-07-20T03:19:52;13;12;
49914;PMS5003;35806;47.958;13.158;2023-07-20T03:22:20;12;12;
49914;PMS5003;35806;47.958;13.158;2023-07-20T03:24:47;13;12;
49914;PMS5003;35806;47.958;13.158;2023-07-20T03:27:15;13;11;
49914;PMS5003;35806;47.958;13.158;2023-07-20T03:29:42;14;12;
49914;PMS5003;35806;47.958;13.158;2023-07-20T03:32:09;12;12;
49914;PMS5003;35806;47.958;13.158;2023-07-20T03:34:37;16;15;
49914;PMS5003;35806;47.958;13.158;2023-07-20T03:37:04;12;12;
49914;PMS5003;35806;47.958;13.158;2023-07-20T03:39:31;11;11;
49914;PMS5003;35806;47.958;13.158;2023-07-20T03:41:59;13;13;
49914;PMS5003;35806;47.958;13.158;2023-07-20T03:44:26;14;14;
49914;PMS5003;35806;47.958;13.158;2023-07-20T03:46:54;12;11;
49914;PMS5003;35806;47.958;13.158;2023-07-20T03:49:26;12;12;
49914;PMS5003;35806;47.958;13.158;2023-07-20T03:51:53;12;12;
49914;PMS5003;35806;47.958;13.158;2023-07-20T03:54:21;13;13;
49914;PMS5003;35806;47.958;13.158;2023-07-20T03:56:48;13;12;
49914;PMS5003;35806;47.958;13.158;2023-07-20T03:59:15;16;16;
49914;PMS5003;35806;47.958;13.158;2023-07-20T04:01:43;13;13;
49914;PMS5003;35806;47.958;13.158;2023-07-20T04:04:10;11;11;
49914;PMS5003;35806;47.958;13.158;2023-07-20T04:06:39;16;14;
49914;PMS5003;35806;47.958;13.158;2023-07-20T04:09:11;12;10;
49914;PMS5003;35806;47.958;13.158;2023-07-20T04:11:38;11;11;
49914;PMS5003;35806;47.958;13.158;2023-07-20T04:14:06;15;13;
49914;PMS5003;35806;47.958;13.158;2023-07-20T04:16:33;12;12;
49914;PMS5003;35806;47.958;13.158;2023-07-20T04:19:03;14;14;
49914;PMS5003;35806;47.958;13.158;2023-07-20T04:21:30;13;12;
49914;PMS5003;35806;47.958;13.158;2023-07-20T04:23:58;12;12;
49914;PMS5003;35806;47.958;13.158;2023-07-20T04:26:25;12;11;
49914;PMS5003;35806;47.958;13.158;2023-07-20T04:28:53;12;12;
49914;PMS5003;35806;47.958;13.158;2023-07-20T04:31:20;12;12;
49914;PMS5003;35806;47.958;13.158;2023-07-20T04:33:47;11;11;
49914;PMS5003;35806;47.958;13.158;2023-07-20T04:36:15;12;11;
49914;PMS5003;35806;47.958;13.158;2023-07-20T04:38:42;14;13;
49914;PMS5003;35806;47.958;13.158;2023-07-20T04:41:10;11;10;
49914;PMS5003;35806;47.958;13.158;2023-07-20T04:43:40;9;9;
49914;PMS5003;35806;47.958;13.158;2023-07-20T04:46:13;10;10;
49914;PMS5003;35806;47.958;13.158;2023-07-20T04:48:45;10;10;
49914;PMS5003;35806;47.958;13.158;2023-07-20T04:51:12;16;13;
49914;PMS5003;35806;47.958;13.158;2023-07-20T04:53:40;11;10;
49914;PMS5003;35806;47.958;13.158;2023-07-20T04:56:06;12;12;
49914;PMS5003;35806;47.958;13.158;2023-07-20T04:58:35;10;9;
49914;PMS5003;35806;47.958;13.158;2023-07-20T05:01:07;12;12;
49914;PMS5003;35806;47.958;13.158;2023-07-20T05:03:35;11;11;
49914;PMS5003;35806;47.958;13.158;2023-07-20T05:06:07;11;10;
49914;PMS5003;35806;47.958;13.158;2023-07-20T05:08:34;11;10;
49914;PMS5003;35806;47.958;13.158;2023-07-20T05:11:07;8;8;
49914;PMS5003;35806;47.958;13.158;2023-07-20T05:13:34;12;11;
49914;PMS5003;35806;47.958;13.158;2023-07-20T05:16:02;13;11;
49914;PMS5003;35806;47.958;13.158;2023-07-20T05:18:30;10;10;
49914;PMS5003;35806;47.958;13.158;2023-07-20T05:20:58;13;11;
49914;PMS5003;35806;47.958;13.158;2023-07-20T05:23:45;13;11;
49914;PMS5003;35806;47.958;13.158;2023-07-20T05:26:12;11;10;
49914;PMS5003;35806;47.958;13.158;2023-07-20T05:28:45;11;11;
49914;PMS5003;35806;47.958;13.158;2023-07-20T05:31:13;13;12;
49914;PMS5003;35806;47.958;13.158;2023-07-20T05:33:42;10;10;
49914;PMS5003;35806;47.958;13.158;2023-07-20T05:36:09;14;11;
49914;PMS5003;35806;47.958;13.158;2023-07-20T05:38:37;12;11;
49914;PMS5003;35806;47.958;13.158;2023-07-20T05:41:09;12;12;
49914;PMS5003;35806;47.958;13.158;2023-07-20T05:43:47;12;10;
49914;PMS5003;35806;47.958;13.158;2023-07-20T05:46:15;10;10;
49914;PMS5003;35806;47.958;13.158;2023-07-20T05:48:42;12;11;
49914;PMS5003;35806;47.958;13.158;2023-07-20T05:51:10;12;10;
49914;PMS5003;35806;47.958;13.158;2023-07-20T05:53:37;12;12;
49914;PMS5003;35806;47.958;13.158;2023-07-20T05:56:05;10;9;
49914;PMS5003;35806;47.958;13.158;2023-07-20T05:58:35;14;11;
49914;PMS5003;35806;47.958;13.158;2023-07-20T06:01:03;15;14;
49914;PMS5003;35806;47.958;13.158;2023-07-20T06:03:31;15;15;
49914;PMS5003;35806;47.958;13.158;2023-07-20T06:05:59;7;7;
49914;PMS5003;35806;47.958;13.158;2023-07-20T06:08:26;10;10;
49914;PMS5003;35806;47.958;13.158;2023-07-20T06:10:54;10;10;
49914;PMS5003;35806;47.958;13.158;2023-07-20T06:13:21;12;11;
49914;PMS5003;35806;47.958;13.158;2023-07-20T06:15:49;10;9;
49914;PMS5003;35806;47.958;13.158;2023-07-20T06:18:16;9;9;
49914;PMS5003;35806;47.958;13.158;2023-07-20T06:20:48;13;12;
49914;PMS5003;35806;47.958;13.158;2023-07-20T06:23:15;13;10;
49914;PMS5003;35806;47.958;13.158;2023-07-20T06:25:43;9;7;
49914;PMS5003;35806;47.958;13.158;2023-07-20T06:28:15;10;9;
49914;PMS5003;35806;47.958;13.158;2023-07-20T06:30:43;10;9;
49914;PMS5003;35806;47.958;13.158;2023-07-20T06:33:10;10;8;
49914;PMS5003;35806;47.958;13.158;2023-07-20T06:35:40;10;9;
49914;PMS5003;35806;47.958;13.158;2023-07-20T06:38:08;11;11;
49914;PMS5003;35806;47.958;13.158;2023-07-20T06:40:35;11;9;
49914;PMS5003;35806;47.958;13.158;2023-07-20T06:43:03;8;8;
49914;PMS5003;35806;47.958;13.158;2023-07-20T06:45:30;7;7;
49914;PMS5003;35806;47.958;13.158;2023-07-20T06:47:58;8;8;
49914;PMS5003;35806;47.958;13.158;2023-07-20T06:50:25;9;8;
49914;PMS5003;35806;47.958;13.158;2023-07-20T06:52:53;6;6;
49914;PMS5003;35806;47.958;13.158;2023-07-20T06:55:20;9;8;
49914;PMS5003;35806;47.958;13.158;2023-07-20T06:57:48;7;7;
49914;PMS5003;35806;47.958;13.158;2023-07-20T07:00:15;8;8;
49914;PMS5003;35806;47.958;13.158;2023-07-20T07:02:43;9;8;
49914;PMS5003;35806;47.958;13.158;2023-07-20T07:05:11;7;7;
49914;PMS5003;35806;47.958;13.158;2023-07-20T07:07:38;8;8;
49914;PMS5003;35806;47.958;13.158;2023-07-20T07:10:05;7;7;
49914;PMS5003;35806;47.958;13.158;2023-07-20T07:12:33;13;9;
49914;PMS5003;35806;47.958;13.158;2023-07-20T07:15:06;5;4;
49914;PMS5003;35806;47.958;13.158;2023-07-20T07:17:34;8;8;
49914;PMS5003;35806;47.958;13.158;2023-07-20T07:20:01;13;7;
49914;PMS5003;35806;47.958;13.158;2023-07-20T07:22:29;6;6;
49914;PMS5003;35806;47.958;13.158;2023-07-20T07:24:57;8;8;
49914;PMS5003;35806;47.958;13.158;2023-07-20T07:27:24;11;9;
49914;PMS5003;35806;47.958;13.158;2023-07-20T07:29:51;9;8;
49914;PMS5003;35806;47.958;13.158;2023-07-20T07:32:19;9;9;
49914;PMS5003;35806;47.958;13.158;2023-07-20T07:34:46;8;8;
49914;PMS5003;35806;47.958;13.158;2023-07-20T07:37:14;8;8;
49914;PMS5003;35806;47.958;13.158;2023-07-20T07:39:42;8;8;
49914;PMS5003;35806;47.958;13.158;2023-07-20T07:42:09;8;8;
49914;PMS5003;35806;47.958;13.158;2023-07-20T07:44:36;9;8;
49914;PMS5003;35806;47.958;13.158;2023-07-20T07:47:04;10;10;
49914;PMS5003;35806;47.958;13.158;2023-07-20T07:49:32;8;8;
49914;PMS5003;35806;47.958;13.158;2023-07-20T07:51:59;9;9;
49914;PMS5003;35806;47.958;13.158;2023-07-20T07:54:27;10;9;
49914;PMS5003;35806;47.958;13.158;2023-07-20T07:56:54;10;10;
49914;PMS5003;35806;47.958;13.158;2023-07-20T07:59:22;9;9;
49914;PMS5003;35806;47.958;13.158;2023-07-20T08:01:49;9;9;
49914;PMS5003;35806;47.958;13.158;2023-07-20T08:04:17;9;9;
49914;PMS5003;35806;47.958;13.158;2023-07-20T08:06:44;11;9;
49914;PMS5003;35806;47.958;13.158;2023-07-20T08:09:12;10;10;
49914;PMS5003;35806;47.958;13.158;2023-07-20T08:11:39;8;8;
49914;PMS5003;35806;47.958;13.158;2023-07-20T08:14:07;9;8;
49914;PMS5003;35806;47.958;13.158;2023-07-20T08:16:34;7;7;
49914;PMS5003;35806;47.958;13.158;2023-07-20T08:19:03;8;7;
49914;PMS5003;35806;47.958;13.158;2023-07-20T08:21:30;9;8;
49914;PMS5003;35806;47.958;13.158;2023-07-20T08:23:58;10;10;
49914;PMS5003;35806;47.958;13.158;2023-07-20T08:26:25;8;8;
49914;PMS5003;35806;47.958;13.158;2023-07-20T08:28:53;8;8;
49914;PMS5003;35806;47.958;13.158;2023-07-20T08:31:20;8;8;
49914;PMS5003;35806;47.958;13.158;2023-07-20T08:33:47;9;8;
49914;PMS5003;35806;47.958;13.158;2023-07-20T08:36:14;7;7;
49914;PMS5003;35806;47.958;13.158;2023-07-20T08:38:42;7;7;
49914;PMS5003;35806;47.958;13.158;2023-07-20T08:41:09;9;9;
49914;PMS5003;35806;47.958;13.158;2023-07-20T08:43:37;7;7;
49914;PMS5003;35806;47.958;13.158;2023-07-20T08:46:07;9;6;
49914;PMS5003;35806;47.958;13.158;2023-07-20T08:48:35;9;8;
49914;PMS5003;35806;47.958;13.158;2023-07-20T08:51:03;6;6;
49914;PMS5003;35806;47.958;13.158;2023-07-20T08:53:31;7;7;
49914;PMS5003;35806;47.958;13.158;2023-07-20T08:56:00;6;6;
49914;PMS5003;35806;47.958;13.158;2023-07-20T08:58:30;5;5;
49914;PMS5003;35806;47.958;13.158;2023-07-20T09:00:59;7;7;
49914;PMS5003;35806;47.958;13.158;2023-07-20T09:03:27;8;5;
49914;PMS5003;35806;47.958;13.158;2023-07-20T09:05:54;8;7;
49914;PMS5003;35806;47.958;13.158;2023-07-20T09:08:22;6;6;
49914;PMS5003;35806;47.958;13.158;2023-07-20T09:10:49;5;5;
49914;PMS5003;35806;47.958;13.158;2023-07-20T09:13:17;6;4;
49914;PMS5003;35806;47.958;13.158;2023-07-20T09:15:45;6;6;
49914;PMS5003;35806;47.958;13.158;2023-07-20T09:18:14;5;5;
49914;PMS5003;35806;47.958;13.158;2023-07-20T09:20:50;6;6;
49914;PMS5003;35806;47.958;13.158;2023-07-20T09:23:18;6;6;
49914;PMS5003;35806;47.958;13.158;2023-07-20T09:25:46;8;5;
49914;PMS5003;35806;47.958;13.158;2023-07-20T09:28:14;7;6;
49914;PMS5003;35806;47.958;13.158;2023-07-20T09:30:42;9;8;
49914;PMS5003;35806;47.958;13.158;2023-07-20T09:33:18;5;5;
49914;PMS5003;35806;47.958;13.158;2023-07-20T09:35:44;6;5;
49914;PMS5003;35806;47.958;13.158;2023-07-20T09:38:12;4;4;
49914;PMS5003;35806;47.958;13.158;2023-07-20T09:40:41;6;5;
49914;PMS5003;35806;47.958;13.158;2023-07-20T09:43:09;4;4;
49914;PMS5003;35806;47.958;13.158;2023-07-20T09:45:39;6;6;
49914;PMS5003;35806;47.958;13.158;2023-07-20T09:48:08;9;6;
49914;PMS5003;35806;47.958;13.158;2023-07-20T09:50:39;7;7;
49914;PMS5003;35806;47.958;13.158;2023-07-20T09:53:07;8;6;
49914;PMS5003;35806;47.958;13.158;2023-07-20T09:55:37;6;6;
49914;PMS5003;35806;47.958;13.158;2023-07-20T09:58:05;5;5;
49914;PMS5003;35806;47.958;13.158;2023-07-20T10:00:34;8;8;
49914;PMS5003;35806;47.958;13.158;2023-07-20T10:03:03;8;7;
49914;PMS5003;35806;47.958;13.158;2023-07-20T10:05:32;7;7;
49914;PMS5003;35806;47.958;13.158;2023-07-20T10:08:02;6;6;
49914;PMS5003;35806;47.958;13.158;2023-07-20T10:10:31;7;7;
49914;PMS5003;35806;47.958;13.158;2023-07-20T10:13:01;4;4;
49914;PMS5003;35806;47.958;13.158;2023-07-20T10:15:30;4;4;
49914;PMS5003;35806;47.958;13.158;2023-07-20T10:18:03;7;6;
49914;PMS5003;35806;47.958;13.158;2023-07-20T10:20:35;5;5;
49914;PMS5003;35806;47.958;13.158;2023-07-20T10:23:05;10;6;
49914;PMS5003;35806;47.958;13.158;2023-07-20T10:25:34;9;7;
49914;PMS5003;35806;47.958;13.158;2023-07-20T10:28:02;5;5;
49914;PMS5003;35806;47.958;13.158;2023-07-20T10:30:31;5;5;
49914;PMS5003;35806;47.958;13.158;2023-07-20T10:32:59;6;6;
49914;PMS5003;35806;47.958;13.158;2023-07-20T10:35:28;5;5;
49914;PMS5003;35806;47.958;13.158;2023-07-20T10:37:59;7;5;
49914;PMS5003;35806;47.958;13.158;2023-07-20T10:40:29;3;3;
49914;PMS5003;35806;47.958;13.158;2023-07-20T10:43:06;5;5;
49914;PMS5003;35806;47.958;13.158;2023-07-20T10:45:34;6;5;
49914;PMS5003;35806;47.958;13.158;2023-07-20T10:48:15;6;5;
49914;PMS5003;35806;47.958;13.158;2023-07-20T10:50:43;6;5;
49914;PMS5003;35806;47.958;13.158;2023-07-20T10:53:11;6;5;
49914;PMS5003;35806;47.958;13.158;2023-07-20T10:55:39;4;4;
49914;PMS5003;35806;47.958;13.158;2023-07-20T10:58:07;7;5;
49914;PMS5003;35806;47.958;13.158;2023-07-20T11:00:35;3;3;
49914;PMS5003;35806;47.958;13.158;2023-07-20T11:03:03;5;5;
49914;PMS5003;35806;47.958;13.158;2023-07-20T11:05:32;5;5;
49914;PMS5003;35806;47.958;13.158;2023-07-20T11:08:06;4;4;
49914;PMS5003;35806;47.958;13.158;2023-07-20T11:10:38;4;4;
49914;PMS5003;35806;47.958;13.158;2023-07-20T11:13:22;5;5;
49914;PMS5003;35806;47.958;13.158;2023-07-20T11:16:05;8;8;
49914;PMS5003;35806;47.958;13.158;2023-07-20T11:18:33;4;4;
49914;PMS5003;35806;47.958;13.158;2023-07-20T11:21:01;5;5;
49914;PMS5003;35806;47.958;13.158;2023-07-20T11:23:29;3;3;
49914;PMS5003;35806;47.958;13.158;2023-07-20T11:25:58;6;6;
49914;PMS5003;35806;47.958;13.158;2023-07-20T11:28:26;7;6;
49914;PMS5003;35806;47.958;13.158;2023-07-20T11:30:57;8;8;
49914;PMS5003;35806;47.958;13.158;2023-07-20T11:33:24;5;5;
49914;PMS5003;35806;47.958;13.158;2023-07-20T11:35:52;5;5;
49914;PMS5003;35806;47.958;13.158;2023-07-20T11:38:20;4;4;
49914;PMS5003;35806;47.958;13.158;2023-07-20T11:40:47;6;6;
49914;PMS5003;35806;47.958;13.158;2023-07-20T11:43:15;5;5;
49914;PMS5003;35806;47.958;13.158;2023-07-20T11:45:43;6;5;
49914;PMS5003;35806;47.958;13.158;2023-07-20T11:48:14;5;4;
49914;PMS5003;35806;47.958;13.158;2023-07-20T11:50:42;5;5;
49914;PMS5003;35806;47.958;13.158;2023-07-20T11:53:09;6;5;
49914;PMS5003;35806;47.958;13.158;2023-07-20T11:55:37;5;5;
49914;PMS5003;35806;47.958;13.158;2023-07-20T11:58:07;6;6;
49914;PMS5003;35806;47.958;13.158;2023-07-20T12:00:35;3;3;
49914;PMS5003;35806;47.958;13.158;2023-07-20T12:03:05;4;4;
49914;PMS5003;35806;47.958;13.158;2023-07-20T12:05:32;7;6;
49914;PMS5003;35806;47.958;13.158;2023-07-20T12:08:00;5;5;
49914;PMS5003;35806;47.958;13.158;2023-07-20T12:10:32;6;6;
49914;PMS5003;35806;47.958;13.158;2023-07-20T12:13:01;5;5;
49914;PMS5003;35806;47.958;13.158;2023-07-20T12:15:30;8;7;
49914;PMS5003;35806;47.958;13.158;2023-07-20T12:17:58;5;5;
49914;PMS5003;35806;47.958;13.158;2023-07-20T12:20:26;6;6;
49914;PMS5003;35806;47.958;13.158;2023-07-20T12:22:56;5;5;
49914;PMS5003;35806;47.958;13.158;2023-07-20T12:25:36;7;5;
49914;PMS5003;35806;47.958;13.158;2023-07-20T12:28:05;4;4;
49914;PMS5003;35806;47.958;13.158;2023-07-20T12:30:38;5;5;
49914;PMS5003;35806;47.958;13.158;2023-07-20T12:33:08;6;4;
49914;PMS5003;35806;47.958;13.158;2023-07-20T12:35:40;5;5;
49914;PMS5003;35806;47.958;13.158;2023-07-20T12:38:07;8;7;
49914;PMS5003;35806;47.958;13.158;2023-07-20T12:40:35;7;7;
49914;PMS5003;35806;47.958;13.158;2023-07-20T12:43:03;9;8;
49914;PMS5003;35806;47.958;13.158;2023-07-20T12:45:31;6;5;
49914;PMS5003;35806;47.958;13.158;2023-07-20T12:48:00;8;7;
49914;PMS5003;35806;47.958;13.158;2023-07-20T12:50:27;6;6;
49914;PMS5003;35806;47.958;13.158;2023-07-20T12:52:55;10;6;
49914;PMS5003;35806;47.958;13.158;2023-07-20T12:55:22;4;4;
49914;PMS5003;35806;47.958;13.158;2023-07-20T12:57:50;9;6;
49914;PMS5003;35806;47.958;13.158;2023-07-20T13:00:17;6;6;
49914;PMS5003;35806;47.958;13.158;2023-07-20T13:02:45;6;6;
49914;PMS5003;35806;47.958;13.158;2023-07-20T13:05:12;5;4;
49914;PMS5003;35806;47.958;13.158;2023-07-20T13:07:40;6;6;
49914;PMS5003;35806;47.958;13.158;2023-07-20T13:10:08;6;6;
49914;PMS5003;35806;47.958;13.158;2023-07-20T13:12:52;5;5;
49914;PMS5003;35806;47.958;13.158;2023-07-20T13:15:19;6;6;
49914;PMS5003;35806;47.958;13.158;2023-07-20T13:17:47;5;5;
49914;PMS5003;35806;47.958;13.158;2023-07-20T13:20:19;4;4;
49914;PMS5003;35806;47.958;13.158;2023-07-20T13:22:46;7;6;
49914;PMS5003;35806;47.958;13.158;2023-07-20T13:25:13;6;6;
49914;PMS5003;35806;47.958;13.158;2023-07-20T13:27:41;6;4;
49914;PMS5003;35806;47.958;13.158;2023-07-20T13:30:09;6;6;
49914;PMS5003;35806;47.958;13.158;2023-07-20T13:32:37;6;6;
49914;PMS5003;35806;47.958;13.158;2023-07-20T13:35:04;4;4;
49914;PMS5003;35806;47.958;13.158;2023-07-20T13:37:33;7;6;
49914;PMS5003;35806;47.958;13.158;2023-07-20T13:40:00;9;7;
49914;PMS5003;35806;47.958;13.158;2023-07-20T13:42:27;5;4;
49914;PMS5003;35806;47.958;13.158;2023-07-20T13:44:55;4;4;
49914;PMS5003;35806;47.958;13.158;2023-07-20T13:47:22;6;6;
49914;PMS5003;35806;47.958;13.158;2023-07-20T13:49:50;7;6;
49914;PMS5003;35806;47.958;13.158;2023-07-20T13:52:17;9;8;
49914;PMS5003;35806;47.958;13.158;2023-07-20T13:54:44;7;7;
49914;PMS5003;35806;47.958;13.158;2023-07-20T13:57:12;7;5;
49914;PMS5003;35806;47.958;13.158;2023-07-20T13:59:39;6;6;
49914;PMS5003;35806;47.958;13.158;2023-07-20T14:02:07;5;5;
49914;PMS5003;35806;47.958;13.158;2023-07-20T14:04:34;6;6;
49914;PMS5003;35806;47.958;13.158;2023-07-20T14:07:02;5;5;
49914;PMS5003;35806;47.958;13.158;2023-07-20T14:09:30;5;5;
49914;PMS5003;35806;47.958;13.158;2023-07-20T14:11:58;5;5;
49914;PMS5003;35806;47.958;13.158;2023-07-20T14:14:25;4;4;
49914;PMS5003;35806;47.958;13.158;2023-07-20T14:16:53;5;5;
49914;PMS5003;35806;47.958;13.158;2023-07-20T14:19:20;5;5;
49914;PMS5003;35806;47.958;13.158;2023-07-20T14:21:47;5;4;
49914;PMS5003;35806;47.958;13.158;2023-07-20T14:24:15;8;6;
49914;PMS5003;35806;47.958;13.158;2023-07-20T14:26:42;7;6;
49914;PMS5003;35806;47.958;13.158;2023-07-20T14:29:20;5;5;
49914;PMS5003;35806;47.958;13.158;2023-07-20T14:31:47;7;7;
49914;PMS5003;35806;47.958;13.158;2023-07-20T14:34:19;5;5;
49914;PMS5003;35806;47.958;13.158;2023-07-20T14:36:47;6;6;
49914;PMS5003;35806;47.958;13.158;2023-07-20T14:39:15;9;8;
49914;PMS5003;35806;47.958;13.158;2023-07-20T14:41:42;7;6;
49914;PMS5003;35806;47.958;13.158;2023-07-20T14:44:09;9;7;
49914;PMS5003;35806;47.958;13.158;2023-07-20T14:46:37;6;6;
49914;PMS5003;35806;47.958;13.158;2023-07-20T14:49:04;5;5;
49914;PMS5003;35806;47.958;13.158;2023-07-20T14:51:32;4;4;
49914;PMS5003;35806;47.958;13.158;2023-07-20T14:54:06;5;5;
49914;PMS5003;35806;47.958;13.158;2023-07-20T14:56:38;5;4;
49914;PMS5003;35806;47.958;13.158;2023-07-20T14:59:06;7;7;
49914;PMS5003;35806;47.958;13.158;2023-07-20T15:01:33;6;6;
49914;PMS5003;35806;47.958;13.158;2023-07-20T15:04:00;8;6;
49914;PMS5003;35806;47.958;13.158;2023-07-20T15:06:28;8;8;
49914;PMS5003;35806;47.958;13.158;2023-07-20T15:08:55;7;7;
49914;PMS5003;35806;47.958;13.158;2023-07-20T15:11:23;6;6;
49914;PMS5003;35806;47.958;13.158;2023-07-20T15:13:50;7;7;
49914;PMS5003;35806;47.958;13.158;2023-07-20T15:16:18;4;4;
49914;PMS5003;35806;47.958;13.158;2023-07-20T15:18:45;5;5;
49914;PMS5003;35806;47.958;13.158;2023-07-20T15:21:13;6;5;
49914;PMS5003;35806;47.958;13.158;2023-07-20T15:23:40;6;6;
49914;PMS5003;35806;47.958;13.158;2023-07-20T15:26:08;5;4;
49914;PMS5003;35806;47.958;13.158;2023-07-20T15:28:35;7;7;
49914;PMS5003;35806;47.958;13.158;2023-07-20T15:31:03;5;5;
49914;PMS5003;35806;47.958;13.158;2023-07-20T15:33:31;5;5;
49914;PMS5003;35806;47.958;13.158;2023-07-20T15:35:59;6;6;
49914;PMS5003;35806;47.958;13.158;2023-07-20T15:38:26;7;6;
49914;PMS5003;35806;47.958;13.158;2023-07-20T15:40:54;4;4;
49914;PMS5003;35806;47.958;13.158;2023-07-20T15:43:21;6;4;
49914;PMS5003;35806;47.958;13.158;2023-07-20T15:45:49;6;6;
49914;PMS5003;35806;47.958;13.158;2023-07-20T15:48:16;6;4;
49914;PMS5003;35806;47.958;13.158;2023-07-20T15:50:45;8;6;
49914;PMS5003;35806;47.958;13.158;2023-07-20T15:53:13;5;5;
49914;PMS5003;35806;47.958;13.158;2023-07-20T15:55:40;6;6;
49914;PMS5003;35806;47.958;13.158;2023-07-20T15:58:08;5;5;
49914;PMS5003;35806;47.958;13.158;2023-07-20T16:00:35;6;6;
49914;PMS5003;35806;47.958;13.158;2023-07-20T16:03:03;8;6;
49914;PMS5003;35806;47.958;13.158;2023-07-20T16:05:30;5;5;
49914;PMS5003;35806;47.958;13.158;2023-07-20T16:07:58;6;6;
49914;PMS5003;35806;47.958;13.158;2023-07-20T16:10:25;5;5;
49914;PMS5003;35806;47.958;13.158;2023-07-20T16:12:53;5;5;
49914;PMS5003;35806;47.958;13.158;2023-07-20T16:15:20;6;6;
49914;PMS5003;35806;47.958;13.158;2023-07-20T16:17:48;6;5;
49914;PMS5003;35806;47.958;13.158;2023-07-20T16:20:15;5;5;
49914;PMS5003;35806;47.958;13.158;2023-07-20T16:22:43;6;6;
49914;PMS5003;35806;47.958;13.158;2023-07-20T16:25:10;5;5;
49914;PMS5003;35806;47.958;13.158;2023-07-20T16:27:37;6;6;
49914;PMS5003;35806;47.958;13.158;2023-07-20T16:30:05;4;4;
49914;PMS5003;35806;47.958;13.158;2023-07-20T16:32:33;6;6;
49914;PMS5003;35806;47.958;13.158;2023-07-20T16:35:01;7;7;
49914;PMS5003;35806;47.958;13.158;2023-07-20T16:37:29;8;7;
49914;PMS5003;35806;47.958;13.158;2023-07-20T16:39:56;5;5;
49914;PMS5003;35806;47.958;13.158;2023-07-20T16:42:24;6;5;